Time;durP1;ratioP1;P1;durP2;ratioP2;P2;SDS_P1;SDS_P2;PMS_P1;PMS_P2;Temp;Humidity;BMP_temperature;BMP_pressure;BME280_temperature;BME280_humidity;BME280_pressure;Samples;Min_cycle;Max_cycle;Signal;HPM_P1;HPM_P2
2023/12/19 00:00:27;;;;;;;333.40;97.50;;;;;;;-0.52;100.00;99143.91;4996355;28;20041;-53
2023/12/19 00:02:52;;;;;;;312.25;100.75;;;;;;;-0.51;100.00;99142.25;4997036;28;20030;-51
2023/12/19 00:05:18;;;;;;;336.15;100.45;;;;;;;-0.48;100.00;99152.66;4997192;28;20456;-53
2023/12/19 00:07:44;;;;;;;309.33;103.07;;;;;;;-0.59;100.00;99147.78;4997816;28;20021;-51
2023/12/19 00:10:09;;;;;;;419.02;102.90;;;;;;;-0.65;100.00;99149.97;4995571;28;20072;-52
2023/12/19 00:12:35;;;;;;;326.90;97.50;;;;;;;-0.76;100.00;99148.44;4997772;28;20140;-53
2023/12/19 00:15:00;;;;;;;384.25;100.43;;;;;;;-0.74;100.00;99150.28;4995613;28;20014;-52
2023/12/19 00:17:25;;;;;;;276.23;99.38;;;;;;;-0.79;100.00;99151.69;4997181;28;20034;-52
2023/12/19 00:19:51;;;;;;;294.35;102.43;;;;;;;-0.89;100.00;99151.94;4998058;28;20034;-52
2023/12/19 00:22:16;;;;;;;319.73;109.25;;;;;;;-0.91;100.00;99151.84;4994563;28;20116;-53
2023/12/19 00:24:42;;;;;;;299.55;110.28;;;;;;;-0.93;100.00;99144.06;4996763;28;20622;-52
2023/12/19 00:27:07;;;;;;;403.00;104.80;;;;;;;-0.95;100.00;99148.22;4993675;28;20049;-52
2023/12/19 00:29:32;;;;;;;289.80;99.35;;;;;;;-0.93;100.00;99145.72;4996988;28;20801;-52
2023/12/19 00:31:57;;;;;;;337.75;99.40;;;;;;;-0.93;100.00;99135.50;4994904;28;20472;-51
2023/12/19 00:34:23;;;;;;;349.77;103.38;;;;;;;-0.96;100.00;99135.34;4996879;28;20452;-53
2023/12/19 00:36:48;;;;;;;281.35;113.43;;;;;;;-0.99;100.00;99125.84;4996447;28;20624;-52
2023/12/19 00:39:14;;;;;;;492.17;127.63;;;;;;;-0.89;100.00;99128.94;4997554;28;20042;-53
2023/12/19 00:41:39;;;;;;;347.90;114.68;;;;;;;-0.97;100.00;99124.25;4997420;28;20048;-53
2023/12/19 00:44:05;;;;;;;380.92;112.68;;;;;;;-1.05;100.00;99120.34;4996569;28;20373;-53
2023/12/19 00:46:30;;;;;;;310.83;124.25;;;;;;;-1.02;100.00;99119.63;4999652;28;20037;-53
2023/12/19 00:48:56;;;;;;;338.20;126.55;;;;;;;-0.97;100.00;99116.56;4998851;28;20084;-52
2023/12/19 00:51:21;;;;;;;289.70;101.20;;;;;;;-0.89;100.00;99117.03;4994475;28;20458;-51
2023/12/19 00:53:47;;;;;;;313.08;117.53;;;;;;;-0.89;100.00;99126.38;4996282;28;20050;-52
2023/12/19 00:56:12;;;;;;;504.83;126.28;;;;;;;-0.90;100.00;99129.75;4993961;28;20053;-53
2023/12/19 00:58:39;;;;;;;291.90;125.07;;;;;;;-0.82;100.00;99118.31;4997563;28;20030;-52
2023/12/19 01:01:07;;;;;;;420.52;134.02;;;;;;;-0.93;100.00;99121.09;4994559;28;20054;-53
2023/12/19 01:03:33;;;;;;;348.92;133.05;;;;;;;-0.97;100.00;99123.38;4996599;28;20022;-52
2023/12/19 01:06:01;;;;;;;323.73;132.10;;;;;;;-1.01;100.00;99116.31;4996577;28;20272;-51
2023/12/19 01:08:26;;;;;;;356.42;135.63;;;;;;;-1.02;100.00;99130.75;4994370;28;20018;-53
2023/12/19 01:10:53;;;;;;;316.38;128.27;;;;;;;-1.05;100.00;99125.44;4997298;28;20063;-52
2023/12/19 01:13:18;;;;;;;337.50;141.35;;;;;;;-1.10;100.00;99119.19;4994955;28;20533;-53
2023/12/19 01:15:44;;;;;;;376.00;145.30;;;;;;;-1.16;100.00;99126.47;4996253;28;20041;-52
2023/12/19 01:18:10;;;;;;;470.95;152.95;;;;;;;-1.19;100.00;99135.69;4994365;28;20034;-53
2023/12/19 01:20:35;;;;;;;338.55;147.25;;;;;;;-1.12;100.00;99136.94;4996715;28;20049;-52
2023/12/19 01:23:00;;;;;;;375.20;152.82;;;;;;;-1.20;100.00;99143.25;4998068;28;20030;-51
2023/12/19 01:25:26;;;;;;;338.80;154.43;;;;;;;-1.25;100.00;99140.44;4996715;28;20485;-52
2023/12/19 01:27:51;;;;;;;339.90;151.60;;;;;;;-1.26;100.00;99136.09;4996117;28;20331;-53
2023/12/19 01:30:16;;;;;;;504.23;160.57;;;;;;;-1.35;100.00;99132.97;4995041;28;20040;-53
2023/12/19 01:32:41;;;;;;;376.08;154.80;;;;;;;-1.27;100.00;99129.22;4995669;28;20046;-52
2023/12/19 01:35:07;;;;;;;478.15;161.93;;;;;;;-1.20;100.00;99110.94;4993122;28;20026;-53
2023/12/19 01:37:32;;;;;;;375.63;161.65;;;;;;;-1.20;100.00;99105.84;4996058;28;20101;-52
2023/12/19 01:39:57;;;;;;;346.42;162.60;;;;;;;-1.18;100.00;99111.91;4995516;28;20068;-54
2023/12/19 01:42:23;;;;;;;311.80;161.82;;;;;;;-1.12;100.00;99113.09;4995237;28;20073;-52
2023/12/19 01:45:12;;;;;;;380.38;151.43;;;;;;;-1.03;100.00;99103.44;4996429;28;20121;-52
2023/12/19 01:47:44;;;;;;;352.70;159.40;;;;;;;-0.98;100.00;99102.03;4994207;28;20037;-53
2023/12/19 01:50:14;;;;;;;538.95;171.38;;;;;;;-0.84;100.00;99109.66;4994226;28;20034;-52
2023/12/19 01:52:43;;;;;;;368.40;169.02;;;;;;;-0.70;100.00;99111.34;4996985;28;20025;-52
2023/12/19 01:55:10;;;;;;;440.55;169.82;;;;;;;-0.69;100.00;99110.59;4994352;28;20029;-53
2023/12/19 01:57:36;;;;;;;334.27;170.93;;;;;;;-0.73;100.00;99108.63;4996501;28;20032;-53
2023/12/19 02:00:03;;;;;;;337.65;156.07;;;;;;;-0.69;100.00;99118.25;4995053;28;20088;-51
2023/12/19 02:02:29;;;;;;;343.58;158.85;;;;;;;-0.60;100.00;99109.38;4993615;28;20048;-53
2023/12/19 02:04:56;;;;;;;310.05;162.60;;;;;;;-0.58;100.00;99110.34;4997711;28;20033;-52
2023/12/19 02:07:22;;;;;;;346.20;163.25;;;;;;;-0.51;100.00;99109.03;4994418;28;21439;-52
2023/12/19 02:09:47;;;;;;;408.00;164.48;;;;;;;-0.63;100.00;99102.38;4995206;28;20052;-53
2023/12/19 02:12:13;;;;;;;391.55;164.38;;;;;;;-0.57;100.00;99092.53;4997534;28;20341;-52
2023/12/19 02:14:39;;;;;;;301.35;166.43;;;;;;;-0.46;100.00;99082.94;4998354;28;20542;-54
2023/12/19 02:17:05;;;;;;;420.67;168.70;;;;;;;-0.61;100.00;99080.38;4998822;28;20040;-52
2023/12/19 02:19:30;;;;;;;360.58;146.93;;;;;;;-0.56;100.00;99071.28;4997273;28;20045;-54
2023/12/19 02:21:56;;;;;;;278.73;155.98;;;;;;;-0.47;100.00;99070.97;4995363;28;20068;-53
2023/12/19 02:24:23;;;;;;;364.13;158.00;;;;;;;-0.52;100.00;99069.78;4997631;28;20479;-53
2023/12/19 02:26:48;;;;;;;316.98;153.20;;;;;;;-0.62;100.00;99076.06;4997126;28;20042;-53
2023/12/19 02:29:14;;;;;;;421.10;159.55;;;;;;;-0.51;100.00;99075.78;4998406;28;20394;-54
2023/12/19 02:31:42;;;;;;;382.10;157.88;;;;;;;-0.51;100.00;99076.69;4995983;28;20034;-54
2023/12/19 02:34:07;;;;;;;372.02;149.82;;;;;;;-0.54;100.00;99082.50;4995505;28;20033;-53
2023/12/19 02:36:35;;;;;;;334.48;158.63;;;;;;;-0.53;100.00;99089.38;4998385;28;20038;-54
2023/12/19 02:39:01;;;;;;;386.20;151.93;;;;;;;-0.60;100.00;99088.94;4996264;28;20118;-54
2023/12/19 02:41:26;;;;;;;343.65;147.90;;;;;;;-0.61;100.00;99082.91;4996710;28;20042;-54
2023/12/19 02:43:51;;;;;;;284.92;146.07;;;;;;;-0.70;100.00;99084.94;4995999;28;20033;-54
2023/12/19 02:46:16;;;;;;;429.45;155.55;;;;;;;-0.66;100.00;99092.00;4997614;28;20452;-53
2023/12/19 02:48:42;;;;;;;340.02;153.18;;;;;;;-0.78;100.00;99094.69;4999086;28;20033;-53
2023/12/19 02:51:07;;;;;;;411.02;161.65;;;;;;;-0.62;100.00;99088.84;4996250;28;20128;-53
2023/12/19 02:53:32;;;;;;;338.50;163.00;;;;;;;-0.46;100.00;99084.59;4996373;28;20037;-54
2023/12/19 02:55:58;;;;;;;320.15;167.45;;;;;;;-0.51;100.00;99084.34;4995987;28;20242;-54
2023/12/19 02:58:23;;;;;;;328.75;170.82;;;;;;;-0.44;100.00;99076.22;4995557;28;20503;-55
2023/12/19 03:00:48;;;;;;;387.98;171.32;;;;;;;-0.41;100.00;99063.63;4994854;28;20172;-54
2023/12/19 03:03:14;;;;;;;392.67;175.52;;;;;;;-0.40;100.00;99061.97;4995954;28;20034;-54
2023/12/19 03:05:39;;;;;;;349.67;172.68;;;;;;;-0.45;100.00;99069.34;4995545;28;20035;-54
2023/12/19 03:08:05;;;;;;;423.52;176.40;;;;;;;-0.42;100.00;99055.88;4992900;28;20265;-53
2023/12/19 03:10:30;;;;;;;332.30;163.23;;;;;;;-0.68;100.00;99062.91;4995033;28;20121;-53
2023/12/19 03:12:55;;;;;;;325.45;154.65;;;;;;;-0.51;100.00;99057.91;4996266;28;20720;-54
2023/12/19 03:15:21;;;;;;;411.20;149.98;;;;;;;-0.54;100.00;99056.94;4992459;28;20402;-53
2023/12/19 03:17:46;;;;;;;360.42;161.05;;;;;;;-0.61;100.00;99056.47;4994408;28;20029;-54
2023/12/19 03:20:11;;;;;;;369.23;161.57;;;;;;;-0.63;100.00;99052.97;4996452;28;20073;-53
2023/12/19 03:22:36;;;;;;;413.67;169.88;;;;;;;-0.58;100.00;99051.56;4997009;28;20025;-53
2023/12/19 03:25:02;;;;;;;337.38;151.02;;;;;;;-0.76;100.00;99051.34;4995792;28;20390;-53
2023/12/19 03:27:28;;;;;;;298.77;157.95;;;;;;;-0.64;100.00;99051.22;4994906;28;20030;-54
2023/12/19 03:29:53;;;;;;;385.67;158.65;;;;;;;-0.66;100.00;99049.41;4995737;28;20021;-52
2023/12/19 03:32:19;;;;;;;376.98;168.80;;;;;;;-0.76;100.00;99042.03;4995135;28;20445;-52
2023/12/19 03:34:44;;;;;;;350.80;168.55;;;;;;;-0.52;100.00;99034.00;5000405;28;20643;-53
2023/12/19 03:37:09;;;;;;;445.92;178.13;;;;;;;-0.41;100.00;99024.44;4997682;28;20154;-53
2023/12/19 03:39:35;;;;;;;370.92;158.65;;;;;;;-0.41;100.00;99026.97;4998278;28;20397;-52
2023/12/19 03:42:00;;;;;;;337.58;151.23;;;;;;;-0.18;100.00;99028.25;4998864;28;20030;-55
2023/12/19 03:44:25;;;;;;;358.58;156.13;;;;;;;-0.24;100.00;99022.81;4998769;28;20627;-53
2023/12/19 03:46:51;;;;;;;349.65;157.23;;;;;;;-0.18;100.00;99027.41;5000203;28;20091;-52
2023/12/19 03:49:16;;;;;;;377.50;155.05;;;;;;;-0.49;100.00;99020.53;4999814;28;20482;-52
2023/12/19 03:51:41;;;;;;;354.80;157.07;;;;;;;-0.53;100.00;99020.34;5000792;28;20074;-53
2023/12/19 03:54:07;;;;;;;372.98;157.57;;;;;;;-0.34;100.00;99012.88;4999255;28;20025;-51
2023/12/19 03:56:32;;;;;;;353.83;159.45;;;;;;;-0.42;100.00;99010.75;4998995;28;20414;-53
2023/12/19 03:58:57;;;;;;;366.92;157.98;;;;;;;-0.41;100.00;98999.72;5000552;28;20105;-53
2023/12/19 04:01:24;;;;;;;356.23;166.85;;;;;;;-0.24;100.00;99002.34;4997482;28;20049;-53
2023/12/19 04:03:50;;;;;;;326.15;162.13;;;;;;;-0.19;100.00;98993.25;5000564;28;20409;-52
2023/12/19 04:06:15;;;;;;;456.73;168.18;;;;;;;-0.36;100.00;98989.78;4999719;28;20510;-53
2023/12/19 04:08:40;;;;;;;359.52;169.18;;;;;;;-0.48;100.00;98992.50;5000054;28;20552;-53
2023/12/19 04:11:06;;;;;;;341.25;170.57;;;;;;;-0.72;100.00;99003.09;5000980;28;20322;-53
2023/12/19 04:13:31;;;;;;;408.00;176.35;;;;;;;-0.67;100.00;99004.22;4997505;28;20326;-53
2023/12/19 04:15:56;;;;;;;362.45;178.15;;;;;;;-0.70;100.00;99008.28;4997573;28;20046;-52
2023/12/19 04:18:22;;;;;;;384.05;177.02;;;;;;;-0.59;100.00;99009.75;4999873;28;20025;-52
2023/12/19 04:20:47;;;;;;;388.63;175.93;;;;;;;-0.62;100.00;99001.06;4996580;28;20046;-53
2023/12/19 04:23:12;;;;;;;422.45;178.05;;;;;;;-0.59;100.00;99003.78;4999471;28;20029;-53
2023/12/19 04:25:38;;;;;;;345.58;178.40;;;;;;;-0.57;100.00;98992.88;4999744;28;20037;-52
2023/12/19 04:28:03;;;;;;;386.80;184.48;;;;;;;-0.66;100.00;98998.31;4997610;28;20022;-52
2023/12/19 04:30:29;;;;;;;352.88;183.20;;;;;;;-0.78;100.00;98992.50;4999935;28;20098;-53
2023/12/19 04:32:54;;;;;;;365.02;184.95;;;;;;;-0.71;100.00;98979.28;4998007;28;20044;-53
2023/12/19 04:35:19;;;;;;;474.75;189.25;;;;;;;-0.74;100.00;98968.88;4997493;28;20029;-53
2023/12/19 04:37:44;;;;;;;354.52;186.10;;;;;;;-0.68;100.00;98978.56;4997746;28;20608;-52
2023/12/19 04:40:11;;;;;;;386.17;174.60;;;;;;;-0.69;100.00;98971.72;4997366;28;20374;-52
2023/12/19 04:42:36;;;;;;;410.42;176.98;;;;;;;-0.60;100.00;98972.22;4997408;28;20113;-53
2023/12/19 04:45:01;;;;;;;364.10;179.55;;;;;;;-0.61;100.00;98974.69;5001100;28;20116;-54
2023/12/19 04:47:28;;;;;;;334.40;170.10;;;;;;;-0.75;100.00;98968.81;4998353;28;20041;-54
2023/12/19 04:49:54;;;;;;;403.00;160.48;;;;;;;-0.81;100.00;98970.19;4999569;28;20029;-53
2023/12/19 04:52:19;;;;;;;398.02;171.30;;;;;;;-0.97;100.00;98957.38;4997450;28;20037;-53
2023/12/19 04:54:45;;;;;;;345.20;169.00;;;;;;;-0.98;100.00;98947.91;4999238;28;20022;-52
2023/12/19 04:57:11;;;;;;;430.63;181.25;;;;;;;-1.01;100.00;98940.94;4999097;28;20026;-52
2023/12/19 04:59:36;;;;;;;356.85;161.60;;;;;;;-0.90;100.00;98943.28;5000578;28;20185;-53
2023/12/19 05:02:02;;;;;;;363.48;174.52;;;;;;;-0.86;100.00;98940.09;4996850;28;20096;-53
2023/12/19 05:04:27;;;;;;;358.42;173.48;;;;;;;-0.76;100.00;98955.16;4998206;28;20022;-53
2023/12/19 05:06:53;;;;;;;353.30;175.85;;;;;;;-0.63;100.00;98946.50;4998602;28;20041;-52
2023/12/19 05:09:18;;;;;;;468.42;185.07;;;;;;;-0.67;100.00;98937.78;4999063;28;20037;-52
2023/12/19 05:11:44;;;;;;;385.73;182.55;;;;;;;-0.64;100.00;98938.78;4998910;28;20503;-53
2023/12/19 05:14:10;;;;;;;412.75;185.65;;;;;;;-0.74;100.00;98943.31;4997154;28;20032;-51
2023/12/19 05:16:35;;;;;;;375.08;179.60;;;;;;;-0.68;100.00;98956.47;4996559;28;20033;-53
2023/12/19 05:19:00;;;;;;;393.27;182.50;;;;;;;-0.82;100.00;98949.69;4997603;28;20029;-52
2023/12/19 05:21:26;;;;;;;400.00;185.32;;;;;;;-0.76;100.00;98937.28;4994881;28;20061;-53
2023/12/19 05:23:51;;;;;;;362.95;185.32;;;;;;;-0.74;100.00;98935.66;4998341;28;20175;-53
2023/12/19 05:26:17;;;;;;;455.10;192.23;;;;;;;-0.66;100.00;98931.88;4997661;28;20049;-51
2023/12/19 05:28:43;;;;;;;363.67;189.93;;;;;;;-0.58;100.00;98919.56;4999168;28;20492;-53
2023/12/19 05:31:10;;;;;;;385.02;189.20;;;;;;;-0.60;100.00;98931.34;4997061;28;20050;-52
2023/12/19 05:33:36;;;;;;;376.88;182.55;;;;;;;-0.82;100.00;98934.38;4997247;28;20222;-53
2023/12/19 05:36:01;;;;;;;385.60;185.75;;;;;;;-0.81;100.00;98921.66;4995980;28;20038;-53
2023/12/19 05:38:28;;;;;;;404.98;187.65;;;;;;;-0.59;100.00;98922.00;4997699;28;20124;-53
2023/12/19 05:40:57;;;;;;;356.05;185.48;;;;;;;-0.43;100.00;98916.06;4994291;28;20119;-51
2023/12/19 05:43:23;;;;;;;360.88;183.90;;;;;;;-0.41;100.00;98917.06;4998171;28;20022;-52
2023/12/19 05:45:48;;;;;;;402.23;188.90;;;;;;;-0.35;100.00;98916.50;4995718;28;20045;-53
2023/12/19 05:48:14;;;;;;;394.98;180.02;;;;;;;-0.37;100.00;98911.28;4997166;28;20030;-54
2023/12/19 05:50:39;;;;;;;351.83;172.43;;;;;;;-0.55;100.00;98908.63;4998291;28;20550;-52
2023/12/19 05:53:04;;;;;;;348.90;163.02;;;;;;;-0.76;100.00;98915.94;4998316;28;20153;-54
2023/12/19 05:55:30;;;;;;;318.23;165.68;;;;;;;-0.66;100.00;98908.00;4996745;28;20042;-53
2023/12/19 05:57:55;;;;;;;337.70;165.60;;;;;;;-0.51;100.00;98915.66;4995987;28;20025;-53
2023/12/19 06:00:20;;;;;;;446.48;173.73;;;;;;;-0.44;100.00;98909.22;4996736;28;20065;-54
2023/12/19 06:02:49;;;;;;;345.52;165.77;;;;;;;-0.44;100.00;98911.75;4996107;28;20079;-54
2023/12/19 06:05:14;;;;;;;444.30;197.15;;;;;;;0.24;100.00;98910.31;4996019;28;20056;-52
2023/12/19 06:07:42;;;;;;;424.05;193.20;;;;;;;1.02;100.00;98898.84;4996407;28;20406;-53
2023/12/19 06:10:10;;;;;;;368.05;174.40;;;;;;;0.90;100.00;98905.94;4995796;28;20026;-54
2023/12/19 06:12:35;;;;;;;346.15;167.93;;;;;;;0.04;100.00;98911.78;4997136;28;20030;-53
2023/12/19 06:15:08;;;;;;;373.48;161.82;;;;;;;-0.52;100.00;98924.09;4997355;28;20473;-53
2023/12/19 06:17:35;;;;;;;328.17;159.88;;;;;;;-1.11;100.00;98925.91;4996203;28;20518;-53
2023/12/19 06:20:01;;;;;;;320.15;168.40;;;;;;;-0.89;100.00;98925.44;4995231;28;20049;-52
2023/12/19 06:22:26;;;;;;;368.63;175.27;;;;;;;-0.64;100.00;98931.09;4995340;28;20111;-52
2023/12/19 06:24:51;;;;;;;317.02;176.85;;;;;;;-0.49;100.00;98923.41;4996900;28;20740;-54
2023/12/19 06:27:17;;;;;;;461.25;176.65;;;;;;;-0.48;100.00;98920.91;4994564;28;20387;-53
2023/12/19 06:29:43;;;;;;;333.10;173.55;;;;;;;-0.50;100.00;98924.19;4993279;28;20021;-54
2023/12/19 06:32:11;;;;;;;345.90;153.55;;;;;;;-0.45;100.00;98922.78;4996605;28;20129;-53
2023/12/19 06:34:36;;;;;;;301.25;150.45;;;;;;;-0.59;100.00;98916.91;4994259;28;20025;-52
2023/12/19 06:37:03;;;;;;;330.10;152.43;;;;;;;-0.49;100.00;98916.63;4993468;28;20056;-54
2023/12/19 06:39:28;;;;;;;416.38;160.93;;;;;;;-0.55;100.00;98917.16;4993926;28;20452;-54
2023/12/19 06:41:53;;;;;;;350.27;157.07;;;;;;;-0.48;100.00;98913.25;4995655;28;20545;-54
2023/12/19 06:44:19;;;;;;;407.98;158.40;;;;;;;-0.80;100.00;98912.34;4991887;28;20037;-52
2023/12/19 06:46:46;;;;;;;343.40;169.05;;;;;;;-0.57;100.00;98913.63;4994497;28;20025;-54
2023/12/19 06:49:15;;;;;;;411.08;168.50;;;;;;;-0.51;100.00;98904.53;4995929;28;20056;-54
2023/12/19 06:51:41;;;;;;;325.05;169.80;;;;;;;-0.47;100.00;98915.03;4996843;28;20060;-53
2023/12/19 06:54:06;;;;;;;341.15;163.27;;;;;;;-0.30;100.00;98910.84;4999002;28;20423;-53
2023/12/19 06:56:31;;;;;;;389.00;172.85;;;;;;;-0.25;100.00;98902.53;4995820;28;20049;-54
2023/12/19 06:58:57;;;;;;;354.50;175.57;;;;;;;-0.18;100.00;98902.09;5000223;28;20382;-53
2023/12/19 07:01:23;;;;;;;358.15;175.00;;;;;;;-0.28;100.00;98898.16;4993867;28;20711;-53
2023/12/19 07:03:48;;;;;;;385.10;181.50;;;;;;;-0.25;100.00;98903.44;4995343;28;20034;-53
2023/12/19 07:06:14;;;;;;;369.35;176.98;;;;;;;-0.23;100.00;98906.94;4995156;28;20060;-54
2023/12/19 07:08:40;;;;;;;354.60;179.70;;;;;;;-0.19;100.00;98898.63;4994152;28;20371;-54
2023/12/19 07:11:06;;;;;;;389.55;181.77;;;;;;;-0.21;100.00;98905.38;4995558;28;20041;-54
2023/12/19 07:13:32;;;;;;;407.65;184.05;;;;;;;-0.08;100.00;98908.59;4995528;28;20056;-54
2023/12/19 07:15:58;;;;;;;343.55;181.10;;;;;;;-0.21;100.00;98905.38;4996025;28;20121;-54
2023/12/19 07:18:24;;;;;;;426.58;190.20;;;;;;;-0.19;100.00;98918.25;4996785;28;20046;-53
2023/12/19 07:20:49;;;;;;;311.27;183.52;;;;;;;-0.26;100.00;98911.88;4996444;28;20543;-52
2023/12/19 07:23:15;;;;;;;368.33;187.75;;;;;;;-0.32;100.00;98916.66;4994815;28;20026;-52
2023/12/19 07:25:41;;;;;;;379.58;186.07;;;;;;;-0.12;100.00;98922.00;4994772;28;20057;-52
2023/12/19 07:28:06;;;;;;;336.98;185.82;;;;;;;-0.31;100.00;98926.09;4996393;28;20601;-53
2023/12/19 07:30:32;;;;;;;419.27;189.93;;;;;;;-0.12;100.00;98938.22;4994200;28;20173;-53
2023/12/19 07:32:59;;;;;;;406.55;191.15;;;;;;;0.06;100.00;98935.78;4995234;28;20022;-54
2023/12/19 07:35:24;;;;;;;434.63;193.27;;;;;;;-0.02;100.00;98932.81;4993587;28;20056;-53
2023/12/19 07:37:50;;;;;;;355.23;172.13;;;;;;;0.16;100.00;98932.03;4996106;28;20475;-52
2023/12/19 07:40:15;;;;;;;410.88;185.38;;;;;;;0.42;100.00;98918.84;4995334;28;20467;-53
2023/12/19 07:42:41;;;;;;;350.83;175.55;;;;;;;0.53;100.00;98915.19;4994985;28;20034;-54
2023/12/19 07:45:06;;;;;;;376.25;187.38;;;;;;;0.68;100.00;98912.53;4994324;28;20494;-54
2023/12/19 07:47:32;;;;;;;471.67;187.95;;;;;;;0.61;100.00;98907.88;4994626;28;20076;-54
2023/12/19 07:49:58;;;;;;;306.92;185.93;;;;;;;0.70;100.00;98908.34;4996107;28;20154;-54
2023/12/19 07:52:24;;;;;;;331.95;189.20;;;;;;;0.73;100.00;98903.38;4995965;28;20053;-52
2023/12/19 07:54:49;;;;;;;419.83;199.68;;;;;;;0.79;100.00;98900.25;4995664;28;20021;-52
2023/12/19 07:57:15;;;;;;;410.52;198.75;;;;;;;0.83;100.00;98901.28;4993649;28;20129;-53
2023/12/19 07:59:41;;;;;;;397.42;204.23;;;;;;;0.82;100.00;98909.78;4992276;28;20026;-51
2023/12/19 08:02:07;;;;;;;383.00;196.80;;;;;;;0.88;100.00;98910.06;4990211;28;20050;-53
2023/12/19 08:04:34;;;;;;;390.60;195.85;;;;;;;0.88;100.00;98910.06;4999260;28;20025;-53
2023/12/19 08:06:59;;;;;;;322.83;194.80;;;;;;;0.72;100.00;98900.75;5000228;28;20570;-53
2023/12/19 08:09:26;;;;;;;419.42;199.93;;;;;;;0.89;100.00;98905.03;4996650;28;20152;-52
2023/12/19 08:11:51;;;;;;;287.83;191.13;;;;;;;0.96;100.00;98907.91;4998720;28;20571;-52
2023/12/19 08:14:17;;;;;;;308.30;181.35;;;;;;;0.92;100.00;98906.00;4997277;28;20026;-52
2023/12/19 08:16:42;;;;;;;355.58;184.07;;;;;;;0.77;100.00;98897.63;4997357;28;20046;-53
2023/12/19 08:19:07;;;;;;;348.42;171.73;;;;;;;1.03;100.00;98905.72;4997884;28;20060;-52
2023/12/19 08:21:33;;;;;;;348.33;183.38;;;;;;;1.03;100.00;98915.09;4999227;28;20030;-53
2023/12/19 08:23:58;;;;;;;350.98;189.40;;;;;;;1.17;100.00;98914.09;5006209;28;20018;-54
2023/12/19 08:26:24;;;;;;;417.08;192.88;;;;;;;1.22;100.00;98905.75;5000393;28;20048;-53
2023/12/19 08:28:50;;;;;;;319.30;169.52;;;;;;;1.07;100.00;98900.75;5004647;28;20040;-52
2023/12/19 08:31:15;;;;;;;343.30;166.27;;;;;;;1.47;100.00;98896.66;5000946;28;20575;-52
2023/12/19 08:33:43;;;;;;;278.02;171.90;;;;;;;1.19;100.00;98891.13;5002592;28;20025;-53
2023/12/19 08:36:09;;;;;;;334.73;168.38;;;;;;;1.09;100.00;98894.03;4997617;28;20038;-54
2023/12/19 08:38:34;;;;;;;379.52;175.82;;;;;;;1.22;100.00;98890.38;5002765;28;20843;-53
2023/12/19 08:41:00;;;;;;;267.15;175.88;;;;;;;1.38;100.00;98876.63;5002403;28;20030;-51
2023/12/19 08:43:25;;;;;;;349.08;173.00;;;;;;;1.30;100.00;98864.31;5001840;28;20040;-53
2023/12/19 08:45:51;;;;;;;337.42;178.40;;;;;;;1.49;100.00;98857.47;5000133;28;20112;-51
2023/12/19 08:48:17;;;;;;;315.02;172.63;;;;;;;1.41;100.00;98846.88;5002376;28;20029;-53
2023/12/19 08:50:42;;;;;;;309.10;175.48;;;;;;;1.42;100.00;98858.00;5002277;28;20068;-54
2023/12/19 08:53:08;;;;;;;358.13;179.60;;;;;;;1.37;100.00;98859.47;5000615;28;20034;-54
2023/12/19 08:55:33;;;;;;;344.60;183.15;;;;;;;1.23;100.00;98851.13;5000595;28;20116;-54
2023/12/19 08:57:58;;;;;;;331.33;187.63;;;;;;;1.27;100.00;98837.66;5000272;28;20064;-53
2023/12/19 09:00:23;;;;;;;349.77;189.98;;;;;;;1.50;100.00;98842.97;5001139;28;20022;-53
2023/12/19 09:02:49;;;;;;;308.55;187.43;;;;;;;1.54;100.00;98832.94;5000432;28;20513;-56
2023/12/19 09:05:16;;;;;;;352.85;192.95;;;;;;;1.45;100.00;98829.06;4998976;28;20066;-54
2023/12/19 09:07:43;;;;;;;332.83;185.73;;;;;;;1.38;100.00;98826.19;5001969;28;20022;-54
2023/12/19 09:10:11;;;;;;;334.48;185.55;;;;;;;1.40;100.00;98834.88;5000920;28;20026;-55
2023/12/19 09:12:36;;;;;;;447.77;187.10;;;;;;;1.48;100.00;98840.34;4998323;28;20022;-55
2023/12/19 09:15:02;;;;;;;294.65;186.07;;;;;;;1.58;100.00;98846.78;5002767;28;20021;-55
2023/12/19 09:17:28;;;;;;;425.48;190.63;;;;;;;1.95;100.00;98848.47;4998696;28;20045;-53
2023/12/19 09:19:58;;;;;;;365.02;191.98;;;;;;;2.30;100.00;98845.69;5001967;28;20034;-54
2023/12/19 09:22:25;;;;;;;385.92;195.05;;;;;;;2.51;100.00;98836.28;4999542;28;20361;-55
2023/12/19 09:24:50;;;;;;;301.75;190.43;;;;;;;2.61;100.00;98812.75;4999476;28;20026;-54
2023/12/19 09:27:16;;;;;;;390.15;196.38;;;;;;;2.71;100.00;98822.59;4998418;28;20153;-54
2023/12/19 09:29:41;;;;;;;362.70;194.40;;;;;;;3.16;100.00;98823.53;4999935;28;20034;-54
2023/12/19 09:32:07;;;;;;;332.50;179.60;;;;;;;3.08;100.00;98805.22;5001783;28;20053;-54
2023/12/19 09:34:33;;;;;;;463.27;188.90;;;;;;;3.38;100.00;98804.66;4999237;28;20045;-54
2023/12/19 09:36:59;;;;;;;293.90;175.02;;;;;;;3.87;100.00;98796.16;4997903;28;20127;-55
2023/12/19 09:39:24;;;;;;;360.27;174.68;;;;;;;3.94;100.00;98802.41;4999791;28;20120;-54
2023/12/19 09:41:50;;;;;;;353.73;172.43;;;;;;;3.72;100.00;98805.09;5001059;28;20664;-54
2023/12/19 09:44:15;;;;;;;339.92;178.23;;;;;;;3.77;100.00;98803.56;5002207;28;20068;-53
2023/12/19 09:46:41;;;;;;;327.38;179.90;;;;;;;3.98;100.00;98786.25;4999263;28;20038;-54
2023/12/19 09:49:09;;;;;;;380.17;176.20;;;;;;;4.63;100.00;98787.59;4999171;28;20382;-55
2023/12/19 09:51:42;;;;;;;414.67;178.00;;;;;;;4.82;100.00;98778.78;4998721;28;20040;-55
2023/12/19 09:54:08;;;;;;;352.08;179.70;;;;;;;4.95;100.00;98775.75;5000488;28;20060;-53
2023/12/19 09:56:34;;;;;;;391.45;185.35;;;;;;;4.83;100.00;98780.56;5000175;28;20033;-54
2023/12/19 09:59:02;;;;;;;344.77;183.07;;;;;;;4.53;100.00;98778.72;5001568;28;20029;-54
2023/12/19 10:01:28;;;;;;;461.40;181.88;;;;;;;3.73;100.00;98778.53;4998166;28;20046;-54
2023/12/19 10:03:55;;;;;;;310.05;179.20;;;;;;;2.78;100.00;98784.31;5002309;28;20053;-54
2023/12/19 10:06:22;;;;;;;328.92;182.90;;;;;;;2.54;100.00;98778.22;4999708;28;20066;-55
2023/12/19 10:08:51;;;;;;;329.20;186.50;;;;;;;2.45;100.00;98775.28;5001182;28;20247;-55
2023/12/19 10:11:24;;;;;;;343.23;190.15;;;;;;;2.47;100.00;98778.78;5000620;28;20042;-53
2023/12/19 10:13:50;;;;;;;305.27;189.55;;;;;;;2.42;100.00;98762.31;5002485;28;20049;-55
2023/12/19 10:16:19;;;;;;;338.17;190.82;;;;;;;2.55;100.00;98767.13;4999056;28;20069;-54
2023/12/19 10:18:54;;;;;;;346.58;192.55;;;;;;;2.73;100.00;98764.44;5000662;28;20085;-54
2023/12/19 10:21:24;;;;;;;366.20;190.75;;;;;;;2.92;100.00;98762.63;4999231;28;20036;-52
2023/12/19 10:23:50;;;;;;;330.20;190.13;;;;;;;3.12;100.00;98765.09;5000175;28;20025;-53
2023/12/19 10:26:16;;;;;;;347.15;192.27;;;;;;;3.25;100.00;98757.03;5000271;28;20038;-53
2023/12/19 10:28:42;;;;;;;492.42;198.65;;;;;;;3.48;100.00;98746.75;4998456;28;20065;-53
2023/12/19 10:31:17;;;;;;;355.63;191.20;;;;;;;4.14;100.00;98739.63;5000322;28;20049;-55
2023/12/19 10:33:45;;;;;;;460.80;194.75;;;;;;;5.30;100.00;98740.69;4999439;28;20030;-53
2023/12/19 10:36:26;;;;;;;358.17;188.90;;;;;;;6.16;100.00;98740.56;5000068;28;20536;-54
2023/12/19 10:38:59;;;;;;;366.42;185.20;;;;;;;6.61;100.00;98732.22;4997606;28;20220;-54
2023/12/19 10:41:32;;;;;;;336.85;185.95;;;;;;;7.09;100.00;98726.44;4995596;28;20022;-52
2023/12/19 10:43:59;;;;;;;319.52;186.40;;;;;;;7.50;100.00;98720.41;5001079;28;20034;-54
2023/12/19 10:46:27;;;;;;;386.25;175.25;;;;;;;7.53;100.00;98710.09;4995267;28;20033;-53
2023/12/19 10:48:54;;;;;;;319.92;176.63;;;;;;;7.38;100.00;98700.28;5001995;28;20030;-53
2023/12/19 10:51:36;;;;;;;368.27;180.13;;;;;;;7.16;100.00;98686.91;4999958;28;20042;-54